createdAt,value
2023-10-10T00:00:50.453Z,71.98
2023-10-10T00:03:19.627Z,73.03
2023-10-10T00:05:46.269Z,73.78
2023-10-10T00:08:12.821Z,73.81
2023-10-10T00:10:51.698Z,73.44
2023-10-10T00:13:19.111Z,74.24
2023-10-10T00:15:52.415Z,74.14
2023-10-10T00:18:20.694Z,74.28
2023-10-10T00:21:05.825Z,74.20
2023-10-10T00:23:39.516Z,75.59
2023-10-10T00:26:06.735Z,74.51
2023-10-10T00:28:35.690Z,73.67
2023-10-10T00:31:09.454Z,73.62
2023-10-10T00:33:39.498Z,74.27
2023-10-10T00:36:12.036Z,74.25
2023-10-10T00:38:38.648Z,74.55
2023-10-10T00:41:12.185Z,74.50
2023-10-10T00:43:38.761Z,74.45
2023-10-10T00:46:09.088Z,74.21
2023-10-10T00:48:39.378Z,74.35
2023-10-10T00:51:11.852Z,74.59
2023-10-10T00:53:43.307Z,74.53
2023-10-10T00:56:10.213Z,74.09
2023-10-10T00:58:37.886Z,74.86
2023-10-10T01:01:10.881Z,74.14
2023-10-10T01:03:41.568Z,73.17
2023-10-10T01:06:27.800Z,71.80
2023-10-10T01:09:00.883Z,70.98
2023-10-10T01:11:27.577Z,71.35
2023-10-10T01:13:54.133Z,71.63
2023-10-10T01:16:25.972Z,70.62
2023-10-10T01:18:55.415Z,70.39
2023-10-10T01:21:32.158Z,70.01
2023-10-10T01:24:07.545Z,69.76
2023-10-10T01:26:38.385Z,69.93
2023-10-10T01:29:35.206Z,69.95
2023-10-10T01:32:03.782Z,70.40
2023-10-10T01:34:34.200Z,70.18
2023-10-10T01:37:08.810Z,69.58
2023-10-10T01:39:54.799Z,70.43
2023-10-10T01:42:32.778Z,70.19
2023-10-10T01:45:09.305Z,70.64
2023-10-10T01:47:40.826Z,69.98
2023-10-10T01:50:16.914Z,70.67
2023-10-10T01:52:47.645Z,71.27
2023-10-10T01:55:17.721Z,70.84
2023-10-10T01:57:44.534Z,71.49
2023-10-10T02:00:28.321Z,71.74
2023-10-10T02:02:56.946Z,71.39
2023-10-10T02:05:46.525Z,70.78
2023-10-10T02:08:18.158Z,71.13
2023-10-10T02:10:48.835Z,71.44
2023-10-10T02:13:15.904Z,71.61
2023-10-10T02:15:43.254Z,71.55
2023-10-10T02:18:32.920Z,72.13
2023-10-10T02:21:07.257Z,71.36
2023-10-10T02:23:34.099Z,72.09
2023-10-10T02:26:15.610Z,72.66
2023-10-10T02:28:49.384Z,72.49
2023-10-10T02:31:17.572Z,72.27
2023-10-10T02:33:49.774Z,72.80
2023-10-10T02:36:17.852Z,71.61
2023-10-10T02:38:56.941Z,72.11
2023-10-10T02:41:39.289Z,73.44
2023-10-10T02:44:10.905Z,73.00
2023-10-10T02:46:43.699Z,72.44
2023-10-10T02:49:24.660Z,72.71
2023-10-10T02:51:56.438Z,73.03
2023-10-10T02:54:28.100Z,72.27
2023-10-10T02:57:26.536Z,72.56
2023-10-10T03:00:00.496Z,73.88
2023-10-10T03:02:31.605Z,73.17
2023-10-10T03:04:59.921Z,71.91
2023-10-10T03:07:30.446Z,71.45
2023-10-10T03:10:05.064Z,71.28
2023-10-10T03:12:32.827Z,71.13
2023-10-10T03:15:29.394Z,71.45
2023-10-10T03:17:56.474Z,71.81
2023-10-10T03:20:45.586Z,71.29
2023-10-10T03:23:12.163Z,71.61
2023-10-10T03:25:48.007Z,70.94
2023-10-10T03:28:29.931Z,70.79
2023-10-10T03:31:24.694Z,70.21
2023-10-10T03:34:17.953Z,69.64
2023-10-10T03:37:04.246Z,69.96
2023-10-10T03:39:45.812Z,69.40
2023-10-10T03:42:30.925Z,69.36
2023-10-10T03:45:15.990Z,69.49
2023-10-10T03:48:00.797Z,69.83
2023-10-10T03:50:46.003Z,69.53
2023-10-10T03:53:30.813Z,69.37
2023-10-10T03:56:15.793Z,70.29
2023-10-10T03:59:00.828Z,70.01
2023-10-10T04:01:46.065Z,70.19
2023-10-10T04:04:32.909Z,69.91
2023-10-10T04:07:17.692Z,70.39
2023-10-10T04:10:02.593Z,70.10
2023-10-10T04:12:47.502Z,70.61
2023-10-10T04:15:33.066Z,70.31
2023-10-10T04:18:18.276Z,69.68
2023-10-10T04:21:03.126Z,70.16
2023-10-10T04:23:48.107Z,69.66
2023-10-10T04:26:32.966Z,69.72
2023-10-10T04:29:18.041Z,69.67
2023-10-10T04:32:03.033Z,69.52
2023-10-10T04:34:48.258Z,69.62
2023-10-10T04:37:46.977Z,69.59
2023-10-10T04:40:32.392Z,69.34
2023-10-10T04:43:17.155Z,69.96
2023-10-10T04:46:01.998Z,69.95
2023-10-10T04:48:47.171Z,69.86
2023-10-10T04:51:31.961Z,69.72
2023-10-10T04:54:17.146Z,69.72
2023-10-10T04:57:02.486Z,69.04
2023-10-10T04:59:47.861Z,69.05
2023-10-10T05:02:32.787Z,68.77
2023-10-10T05:05:17.997Z,69.46
2023-10-10T05:08:03.163Z,69.53
2023-10-10T05:10:48.393Z,69.05
2023-10-10T05:13:33.261Z,69.31
2023-10-10T05:16:22.841Z,69.33
2023-10-10T05:19:12.224Z,68.84
2023-10-10T05:21:57.110Z,68.59
2023-10-10T05:24:25.792Z,68.25
2023-10-10T05:26:55.699Z,68.61
2023-10-10T05:29:22.394Z,68.42
2023-10-10T05:31:52.205Z,67.92
2023-10-10T05:34:21.739Z,67.76
2023-10-10T05:36:49.225Z,67.99
2023-10-10T05:39:19.170Z,68.33
2023-10-10T05:41:45.970Z,67.96
2023-10-10T05:44:14.925Z,67.80
2023-10-10T05:46:41.828Z,67.78
2023-10-10T05:49:08.301Z,67.42
2023-10-10T05:51:34.802Z,67.68
2023-10-10T05:54:01.319Z,66.58
2023-10-10T05:56:31.115Z,66.50
2023-10-10T05:58:57.974Z,66.78
2023-10-10T06:01:25.039Z,67.10
2023-10-10T06:03:52.617Z,67.38
2023-10-10T06:06:19.598Z,67.79
2023-10-10T06:08:46.665Z,68.14
2023-10-10T06:11:16.910Z,67.60
2023-10-10T06:13:46.859Z,67.66
2023-10-10T06:16:16.127Z,67.19
2023-10-10T06:18:45.792Z,66.59
2023-10-10T06:21:12.828Z,65.73
2023-10-10T06:23:43.164Z,66.11
2023-10-10T06:26:10.249Z,65.29
2023-10-10T06:28:37.351Z,65.09
2023-10-10T06:31:11.619Z,64.60
2023-10-10T06:33:42.531Z,64.68
2023-10-10T06:36:33.772Z,64.30
2023-10-10T06:39:19.312Z,64.56
2023-10-10T06:41:48.727Z,63.94
2023-10-10T06:44:16.421Z,64.06
2023-10-10T06:46:49.202Z,62.90
2023-10-10T06:49:16.555Z,62.99
2023-10-10T06:51:43.228Z,62.94
2023-10-10T06:54:20.818Z,62.67
2023-10-10T06:57:00.302Z,63.05
2023-10-10T06:59:30.672Z,62.84
2023-10-10T07:02:01.480Z,63.63
2023-10-10T07:04:28.745Z,62.92
2023-10-10T07:07:01.555Z,63.24
2023-10-10T07:09:29.830Z,63.58
2023-10-10T07:11:57.615Z,62.64
2023-10-10T07:14:27.376Z,62.91
2023-10-10T07:16:58.002Z,63.00
2023-10-10T07:19:31.472Z,63.44
2023-10-10T07:22:01.199Z,64.14
2023-10-10T07:24:44.035Z,63.52
2023-10-10T07:27:13.923Z,63.25
2023-10-10T07:29:46.365Z,63.41
2023-10-10T07:32:19.069Z,63.72
2023-10-10T07:34:52.832Z,63.27
2023-10-10T07:37:19.923Z,62.21
2023-10-10T07:40:05.277Z,62.81
2023-10-10T07:42:32.382Z,61.68
2023-10-10T07:44:59.621Z,60.80
2023-10-10T07:47:27.985Z,60.94
2023-10-10T07:49:55.464Z,61.03
2023-10-10T07:52:22.613Z,61.48
2023-10-10T07:54:54.788Z,60.67
2023-10-10T07:57:27.544Z,61.10
2023-10-10T07:59:56.726Z,60.74
2023-10-10T08:02:26.945Z,60.43
2023-10-10T08:04:54.939Z,61.36
2023-10-10T08:07:23.990Z,60.78
2023-10-10T08:09:50.908Z,60.59
2023-10-10T08:12:17.573Z,59.30
2023-10-10T08:14:44.645Z,59.44
2023-10-10T08:17:20.134Z,58.43
2023-10-10T08:19:52.753Z,58.59
2023-10-10T08:22:21.010Z,58.94
2023-10-10T08:24:47.537Z,59.24
2023-10-10T08:27:14.203Z,59.27
2023-10-10T08:29:41.698Z,59.85
2023-10-10T08:32:10.009Z,60.23
2023-10-10T08:34:44.079Z,59.36
2023-10-10T08:37:11.124Z,59.35
2023-10-10T08:39:40.282Z,59.50
2023-10-10T08:42:12.210Z,59.74
2023-10-10T08:44:40.958Z,60.25
2023-10-10T08:47:09.250Z,59.90
2023-10-10T08:49:36.732Z,59.95
2023-10-10T08:52:04.853Z,60.67
2023-10-10T08:54:33.676Z,59.67
2023-10-10T08:57:01.380Z,58.90
2023-10-10T08:59:32.601Z,59.97
2023-10-10T09:02:10.125Z,59.98
2023-10-10T09:04:36.743Z,58.95
2023-10-10T09:07:09.636Z,58.57
2023-10-10T09:09:36.526Z,58.08
2023-10-10T09:12:04.636Z,58.22
2023-10-10T09:14:42.493Z,57.71
2023-10-10T09:17:10.798Z,58.86
2023-10-10T09:19:42.265Z,58.94
2023-10-10T09:22:13.645Z,58.58
2023-10-10T09:24:42.516Z,58.96
2023-10-10T09:27:29.665Z,59.14
2023-10-10T09:29:57.447Z,58.58
2023-10-10T09:32:43.999Z,58.03
2023-10-10T09:35:10.831Z,57.83
2023-10-10T09:37:42.552Z,58.30
2023-10-10T09:40:17.105Z,60.48
2023-10-10T09:42:59.729Z,59.52
2023-10-10T09:45:37.202Z,60.77
2023-10-10T09:48:29.251Z,60.62
2023-10-10T09:51:18.464Z,61.96
2023-10-10T09:53:48.749Z,62.10
2023-10-10T09:56:16.854Z,61.84
2023-10-10T09:58:45.778Z,60.90
2023-10-10T10:01:24.999Z,60.11
2023-10-10T10:04:04.834Z,59.26
2023-10-10T10:06:41.363Z,58.87
2023-10-10T10:09:48.048Z,58.26
2023-10-10T10:12:32.864Z,58.08
2023-10-10T10:15:21.553Z,57.33
2023-10-10T10:18:15.268Z,57.87
2023-10-10T10:20:48.055Z,56.11
2023-10-10T10:23:19.420Z,57.26
2023-10-10T10:26:12.270Z,57.54
2023-10-10T10:28:42.974Z,57.39
2023-10-10T10:31:29.229Z,55.85
2023-10-10T10:34:06.898Z,56.69
2023-10-10T10:36:55.427Z,56.49
2023-10-10T10:39:28.400Z,56.36
2023-10-10T10:41:57.706Z,56.34
2023-10-10T10:44:47.691Z,57.56
2023-10-10T10:47:39.409Z,56.43
2023-10-10T10:50:18.704Z,55.97
2023-10-10T10:52:57.964Z,59.11
2023-10-10T10:55:30.487Z,59.06
2023-10-10T10:58:07.509Z,60.03
2023-10-10T11:01:00.157Z,60.41
2023-10-10T11:03:34.801Z,59.17
2023-10-10T11:06:02.253Z,60.10
2023-10-10T11:08:57.164Z,61.12
2023-10-10T11:11:33.211Z,60.46
2023-10-10T11:14:27.230Z,58.79
2023-10-10T11:16:59.540Z,59.45
2023-10-10T11:19:30.530Z,57.91
2023-10-10T11:22:02.327Z,58.83
2023-10-10T11:24:32.826Z,60.02
2023-10-10T11:27:08.337Z,58.92
2023-10-10T11:30:01.141Z,59.91
2023-10-10T11:32:37.901Z,59.47
2023-10-10T11:35:34.074Z,59.13
2023-10-10T11:38:00.907Z,58.24
2023-10-10T11:40:31.707Z,58.19
2023-10-10T11:43:00.562Z,58.51
2023-10-10T11:45:28.022Z,59.07
2023-10-10T11:48:06.676Z,58.46
2023-10-10T11:50:48.257Z,60.58
2023-10-10T11:53:28.933Z,61.26
2023-10-10T11:55:56.565Z,60.79
2023-10-10T11:58:36.928Z,62.00
2023-10-10T12:01:07.089Z,61.81
2023-10-10T12:03:41.515Z,62.66
2023-10-10T12:06:18.660Z,62.70
2023-10-10T12:08:48.209Z,62.72
2023-10-10T12:11:21.203Z,63.08
2023-10-10T12:13:49.640Z,59.45
2023-10-10T12:16:18.635Z,59.05
2023-10-10T12:18:51.771Z,58.55
2023-10-10T12:21:22.601Z,57.77
2023-10-10T12:24:02.595Z,56.09
2023-10-10T12:26:37.284Z,56.16
2023-10-10T12:29:03.953Z,55.84
2023-10-10T12:31:34.763Z,54.30
2023-10-10T12:34:01.453Z,55.55
2023-10-10T12:36:31.443Z,56.40
2023-10-10T12:39:05.810Z,56.32
2023-10-10T12:41:47.194Z,54.69
2023-10-10T12:44:15.097Z,55.33
2023-10-10T12:46:41.843Z,54.83
2023-10-10T12:49:12.757Z,53.60
2023-10-10T12:51:40.715Z,54.00
2023-10-10T12:54:11.295Z,53.04
2023-10-10T12:56:50.415Z,52.17
2023-10-10T12:59:27.191Z,51.20
2023-10-10T13:02:01.278Z,50.42
2023-10-10T13:04:33.139Z,52.50
2023-10-10T13:07:06.047Z,51.89
2023-10-10T13:09:33.105Z,50.14
2023-10-10T13:12:03.837Z,50.63
2023-10-10T13:14:34.154Z,50.13
2023-10-10T13:17:21.944Z,49.85
2023-10-10T13:19:49.971Z,49.79
2023-10-10T13:22:22.094Z,50.32
2023-10-10T13:24:50.039Z,48.75
2023-10-10T13:27:18.136Z,49.24
2023-10-10T13:29:44.775Z,49.98
2023-10-10T13:32:11.664Z,49.27
2023-10-10T13:34:38.913Z,49.90
2023-10-10T13:37:08.978Z,49.51
2023-10-10T13:39:49.078Z,50.37
2023-10-10T13:42:16.043Z,49.71
2023-10-10T13:44:43.772Z,50.57
2023-10-10T13:47:11.550Z,51.01
2023-10-10T13:49:45.861Z,50.79
2023-10-10T13:52:13.922Z,51.07
2023-10-10T13:54:40.677Z,50.46
2023-10-10T13:57:08.611Z,50.37
2023-10-10T13:59:35.171Z,50.51
2023-10-10T14:02:05.286Z,50.46
2023-10-10T14:04:47.035Z,49.83
2023-10-10T14:07:15.595Z,50.62
2023-10-10T14:09:56.142Z,50.58
2023-10-10T14:12:33.436Z,50.58
2023-10-10T14:15:00.703Z,50.94
2023-10-10T14:17:27.350Z,51.62
2023-10-10T14:19:53.955Z,51.66
2023-10-10T14:22:25.014Z,51.99
2023-10-10T14:24:53.720Z,52.55
2023-10-10T14:27:21.396Z,52.62
2023-10-10T14:29:49.137Z,52.65
2023-10-10T14:32:30.886Z,53.79
2023-10-10T14:35:01.903Z,54.66
2023-10-10T14:40:00.861Z,54.03
2023-10-10T14:42:29.029Z,53.22
2023-10-10T14:44:55.601Z,53.85
2023-10-10T14:47:22.505Z,53.38
2023-10-10T14:49:51.471Z,54.39
2023-10-10T14:52:19.075Z,54.66
2023-10-10T14:54:50.278Z,54.52
2023-10-10T14:57:25.640Z,54.71
2023-10-10T14:59:56.857Z,56.17
2023-10-10T15:02:27.578Z,55.47
2023-10-10T15:04:55.802Z,55.34
2023-10-10T15:07:22.436Z,55.94
2023-10-10T15:09:49.089Z,57.14
2023-10-10T15:12:15.611Z,55.79
2023-10-10T15:14:44.115Z,55.81
2023-10-10T15:17:11.299Z,57.03
2023-10-10T15:19:37.909Z,57.46
2023-10-10T15:22:04.657Z,56.88
2023-10-10T15:24:34.209Z,57.46
2023-10-10T15:27:01.344Z,57.60
2023-10-10T15:29:28.320Z,57.67
2023-10-10T15:31:57.319Z,58.08
2023-10-10T15:34:24.747Z,58.91
2023-10-10T15:36:51.309Z,59.45
2023-10-10T15:39:18.271Z,59.92
2023-10-10T15:41:46.066Z,60.41
2023-10-10T15:44:14.021Z,60.40
2023-10-10T15:46:43.692Z,60.67
2023-10-10T15:49:29.156Z,59.71
2023-10-10T15:52:04.825Z,59.73
2023-10-10T15:54:35.706Z,58.99
2023-10-10T15:57:09.909Z,58.36
2023-10-10T15:59:42.992Z,58.54
2023-10-10T16:02:11.135Z,58.18
2023-10-10T16:04:43.517Z,58.37
2023-10-10T16:07:11.934Z,58.40
2023-10-10T16:09:38.503Z,58.72
2023-10-10T16:12:08.982Z,58.05
2023-10-10T16:14:38.228Z,57.16
2023-10-10T16:17:05.186Z,59.09
2023-10-10T16:19:33.706Z,60.02
2023-10-10T16:22:02.423Z,59.54
2023-10-10T16:24:29.443Z,58.67
2023-10-10T16:27:00.532Z,58.23
2023-10-10T16:29:34.416Z,59.62
2023-10-10T16:32:10.088Z,59.70
2023-10-10T16:34:41.461Z,59.96
2023-10-10T16:37:10.581Z,61.35
2023-10-10T16:39:39.561Z,61.56
2023-10-10T16:42:06.185Z,62.05
2023-10-10T16:44:32.913Z,61.99
2023-10-10T16:47:02.303Z,62.90
2023-10-10T16:49:29.290Z,62.99
2023-10-10T16:51:55.833Z,63.53
2023-10-10T16:54:22.637Z,63.02
2023-10-10T16:56:49.169Z,62.85
2023-10-10T16:59:16.337Z,63.47
2023-10-10T17:01:46.015Z,61.85
2023-10-10T17:04:12.824Z,62.15
2023-10-10T17:06:39.493Z,62.42
2023-10-10T17:09:06.235Z,63.65
2023-10-10T17:11:33.105Z,64.82
2023-10-10T17:14:01.058Z,64.76
2023-10-10T17:16:30.799Z,65.92
2023-10-10T17:19:14.308Z,65.45
2023-10-10T17:21:47.468Z,65.32
2023-10-10T17:24:16.924Z,65.38
2023-10-10T17:26:45.007Z,64.46
2023-10-10T17:29:14.863Z,65.56
2023-10-10T17:31:41.571Z,67.34
2023-10-10T17:34:08.256Z,66.87
2023-10-10T17:36:38.190Z,64.77
2023-10-10T17:39:05.703Z,65.68
2023-10-10T17:41:36.067Z,64.98
2023-10-10T17:44:10.253Z,65.04
2023-10-10T17:46:37.344Z,65.63
2023-10-10T17:49:05.913Z,65.64
2023-10-10T17:51:36.180Z,67.00
2023-10-10T17:54:03.683Z,65.79
2023-10-10T17:56:30.521Z,65.55
2023-10-10T17:58:57.145Z,64.22
2023-10-10T18:01:23.766Z,66.31
2023-10-10T18:03:55.044Z,68.00
2023-10-10T18:06:27.479Z,66.52
2023-10-10T18:09:01.897Z,67.11
2023-10-10T18:11:33.284Z,65.56
2023-10-10T18:14:00.048Z,65.48
2023-10-10T18:16:26.735Z,65.67
2023-10-10T18:18:53.978Z,66.34
2023-10-10T18:21:23.578Z,67.38
2023-10-10T18:23:50.306Z,68.25
2023-10-10T18:26:19.346Z,67.68
2023-10-10T18:28:45.923Z,68.33
2023-10-10T18:31:19.953Z,69.83
2023-10-10T18:33:46.703Z,69.87
2023-10-10T18:36:13.556Z,69.95
2023-10-10T18:38:40.227Z,69.39
2023-10-10T18:41:07.217Z,70.54
2023-10-10T18:43:33.908Z,71.04
2023-10-10T18:46:01.914Z,70.78
2023-10-10T18:48:29.148Z,70.38
2023-10-10T18:50:56.037Z,70.89
2023-10-10T18:53:26.538Z,70.97
2023-10-10T18:55:55.387Z,70.75
2023-10-10T18:58:27.171Z,70.89
2023-10-10T19:00:56.254Z,71.21
2023-10-10T19:03:23.685Z,70.94
2023-10-10T19:05:53.847Z,70.95
2023-10-10T19:08:21.619Z,70.94
2023-10-10T19:10:53.983Z,71.20
2023-10-10T19:13:20.943Z,71.29
2023-10-10T19:15:50.266Z,71.73
2023-10-10T19:18:17.274Z,71.48
2023-10-10T19:20:47.830Z,71.58
2023-10-10T19:23:16.115Z,71.38
2023-10-10T19:25:49.051Z,71.45
2023-10-10T19:28:17.328Z,71.37
2023-10-10T19:30:45.296Z,70.33
2023-10-10T19:33:16.371Z,70.17
2023-10-10T19:35:46.895Z,70.05
2023-10-10T19:38:13.780Z,70.74
2023-10-10T19:40:44.767Z,69.67
2023-10-10T19:43:14.035Z,70.47
2023-10-10T19:45:41.319Z,69.46
2023-10-10T19:48:08.503Z,70.56
2023-10-10T19:50:44.207Z,70.55
2023-10-10T19:53:14.146Z,70.22
2023-10-10T19:55:45.329Z,70.95
2023-10-10T19:58:13.130Z,71.10
2023-10-10T20:00:42.865Z,70.35
2023-10-10T20:03:10.945Z,69.73
2023-10-10T20:05:37.902Z,68.78
2023-10-10T20:08:08.798Z,69.70
2023-10-10T20:10:35.405Z,70.38
2023-10-10T20:13:06.590Z,71.12
2023-10-10T20:15:38.334Z,70.89
2023-10-10T20:18:06.601Z,70.87
2023-10-10T20:20:33.870Z,71.38
2023-10-10T20:23:03.406Z,70.99
2023-10-10T20:25:31.608Z,70.82
2023-10-10T20:28:00.945Z,71.09
2023-10-10T20:30:31.570Z,70.94
2023-10-10T20:33:01.922Z,70.35
2023-10-10T20:35:33.135Z,69.91
2023-10-10T20:38:07.175Z,70.54
2023-10-10T20:40:36.221Z,68.90
2023-10-10T20:43:08.518Z,68.50
2023-10-10T20:45:37.618Z,67.89
2023-10-10T20:48:17.071Z,66.72
2023-10-10T20:50:45.072Z,68.33
2023-10-10T20:53:13.176Z,67.74
2023-10-10T20:55:47.190Z,68.50
2023-10-10T20:58:14.740Z,69.68
2023-10-10T21:00:41.660Z,70.07
2023-10-10T21:03:15.474Z,69.90
2023-10-10T21:05:45.522Z,70.52
2023-10-10T21:08:12.345Z,71.90
2023-10-10T21:10:42.009Z,71.91
2023-10-10T21:13:08.771Z,72.33
2023-10-10T21:15:35.351Z,72.36
2023-10-10T21:18:01.969Z,72.80
2023-10-10T21:20:29.293Z,72.98
2023-10-10T21:23:00.655Z,72.84
2023-10-10T21:25:28.079Z,72.24
2023-10-10T21:27:58.454Z,70.69
2023-10-10T21:30:26.919Z,72.03
2023-10-10T21:32:55.487Z,71.63
2023-10-10T21:35:24.320Z,69.45
2023-10-10T21:37:50.959Z,70.26
2023-10-10T21:40:21.385Z,69.36
2023-10-10T21:42:50.035Z,70.06
2023-10-10T21:45:17.804Z,71.33
2023-10-10T21:47:48.507Z,71.46
2023-10-10T21:50:17.049Z,71.82
2023-10-10T21:52:45.408Z,68.87
2023-10-10T21:55:14.619Z,68.76
2023-10-10T21:57:41.708Z,70.50
2023-10-10T22:00:20.917Z,69.70
2023-10-10T22:02:50.557Z,68.61
2023-10-10T22:05:20.100Z,69.02
2023-10-10T22:07:48.278Z,67.27
2023-10-10T22:10:16.885Z,67.29
2023-10-10T22:12:44.649Z,66.84
2023-10-10T22:15:12.279Z,69.15
2023-10-10T22:17:42.882Z,70.43
2023-10-10T22:20:12.099Z,72.31
2023-10-10T22:22:41.891Z,73.31
2023-10-10T22:25:18.945Z,73.92
2023-10-10T22:27:47.146Z,74.30
2023-10-10T22:30:15.801Z,74.31
2023-10-10T22:32:46.101Z,74.29
2023-10-10T22:35:14.311Z,74.28
2023-10-10T22:37:41.489Z,74.25
2023-10-10T22:40:12.892Z,74.14
2023-10-10T22:42:39.731Z,73.72
2023-10-10T22:45:11.096Z,73.77
2023-10-10T22:47:38.842Z,73.56
2023-10-10T22:50:07.516Z,73.44
2023-10-10T22:52:38.178Z,73.05
2023-10-10T22:55:08.034Z,73.05
2023-10-10T22:57:38.204Z,73.03
2023-10-10T23:00:14.359Z,73.03
2023-10-10T23:02:49.443Z,72.69
2023-10-10T23:05:16.150Z,72.59
2023-10-10T23:07:43.090Z,72.87
2023-10-10T23:10:17.430Z,73.17
2023-10-10T23:12:44.086Z,73.15
2023-10-10T23:15:12.874Z,73.42
2023-10-10T23:17:41.191Z,73.43
2023-10-10T23:20:13.668Z,72.90
2023-10-10T23:22:41.663Z,73.29
2023-10-10T23:25:09.355Z,73.28
2023-10-10T23:27:35.848Z,73.14
2023-10-10T23:30:02.769Z,73.38
2023-10-10T23:32:29.523Z,73.67
2023-10-10T23:34:57.006Z,73.76
2023-10-10T23:37:24.665Z,73.75
2023-10-10T23:39:53.791Z,74.01
2023-10-10T23:42:25.006Z,73.84
2023-10-10T23:44:51.602Z,73.49
2023-10-10T23:47:20.718Z,72.97
2023-10-10T23:49:48.224Z,73.06
2023-10-10T23:52:17.289Z,72.80
2023-10-10T23:54:46.644Z,72.54
2023-10-10T23:57:15.987Z,72.21
2023-10-10T23:59:46.479Z,72.46
